Aeroporto :
LOGIN :

Iscrizione | Disclaimer

   EN    FR    IT 

 










Sommario :    VFR   VFR Marginale   IFR   IFR Intensivo   IFR Molto Intensivo
Visibilità : 
Base nubi : 
>= 8 km
>= 3000ft
5 / 8 km
1000 / 3000 ft
1500m / 5 km
500 / 1000 ft
800 / 1500m
200 / 500 ft
< 800m
< 200 ft
Simboli :   Temporali  Nebbia  Neve Forte  Precipitazioni Forti  Vento > 20 kt
SIGMETs :   Varie  Temporali  Ghiacco  Turbolenza  Onda orograficha  Ceneri Vulcaniche






- Altitudine del aeroporto : 1455 ft


ETIH - Hohenfels Army Air Field

ULTIMO METAR :
  • 180226Z AUTO 00000KT 3600 BR BKN013 BKN019 BKN039 OVC095 01/00 A3019 RMK AO2 VIS 2400V3600 SLP248 $

METARs OBSOLETI :
  • 180211Z AUTO 00000KT 1800 BR BKN013 BKN019 01/00 A3019 RMK AO2 SLP248 $
  • 180206Z AUTO 00000KT 1400 BR BKN015 BKN023 01/00 A3019 RMK AO2 VIS 1400V2600 SLP248 RVRNO $
  • 180156Z AUTO 00000KT 2600 BR M 01/00 A3019 RMK AO2 SLP248 P//// T00081001 $
  • 180144Z AUTO 00000KT 2000 BR M 01/00 A3019 RMK AO2 SLP248 $
  • 180111Z AUTO 00000KT 1600 BR BKN016 BKN041 BKN050 01/00 A3018 RMK AO2 CIG 016V023 BKN016 V SCT SLP245 RVRNO $
  • 180056Z AUTO 00000KT 2800 BR FEW013 BKN019 BKN025 OVC050 01/00 A3017 RMK AO2 VIS 2800V3600 DZB03E04RAB04E19RAB46E55 CIG 015V022 SLP241 P0000 T00110002 $
  • 180046Z AUTO 00000KT 3200 -RA BR FEW013 BKN022 OVC029 01/00 A3017 RMK AO2 VIS 2000V3200 DZB03E04RAB04E19RAB46 SLP241 $
  • 180034Z AUTO 00000KT 1600 BR FEW013 BKN019 OVC027 01/00 A3017 RMK AO2 DZB03E04RAB04E19 SLP241 RVRNO $
  • 180019Z AUTO 00000KT 2800 BR BKN018 OVC026 01/00 A3016 RMK AO2 DZB03E04RAB04E19 SLP238 $
  • 180008Z AUTO 00000KT 1800 -RA BR BKN018 OVC035 01/00 A3016 RMK AO2 DZB03E04RAB04 SLP238 $
  • 180001Z AUTO 00000KT 1400 BR BKN018 OVC035 01/00 A3016 RMK AO2 VIS 1400V2400 CIG 018V034 BKN V SCT SLP238 RVRNO $
  • 172336Z AUTO 00000KT 3200 BR BKN030 01/00 A3016 RMK AO2 SLP238 $

Previsioni scadute.



MetMap, La meteo Aeronautica in un colpo d'occhio ! - Copyright ORBIFLY Dicembre 2007 - Disclaimer

ORBIFLY MET'MAP TEAM :

Programmazione e sviluppo : Alexandra Zaïnal
Concezione : Baudouin d'Aumeries
Aiuto per la programmazione : Marc-Olivier Méhu
Supporto tecnico e logistico : Manuel Goepfert
Aiuto per la traduzione : Arnaldo La Scala

Contatto : metmap@orbifly.com




FONTI E CREDITI :

   NOAA